sensor_id;sensor_type;location;lat;lon;timestamp;P1;durP1;ratioP1;P2;durP2;ratioP2
55692;SDS011;41590;53.366;5.212;2022-11-15T00:00:35;31.52;;;23.42;;
55692;SDS011;41590;53.366;5.212;2022-11-15T00:03:02;30.27;;;22.80;;
55692;SDS011;41590;53.366;5.212;2022-11-15T00:08:20;32.88;;;24.08;;
55692;SDS011;41590;53.366;5.212;2022-11-15T00:16:30;32.30;;;24.27;;
55692;SDS011;41590;53.366;5.212;2022-11-15T00:25:43;31.02;;;22.50;;
55692;SDS011;41590;53.366;5.212;2022-11-15T00:28:09;34.28;;;24.58;;
55692;SDS011;41590;53.366;5.212;2022-11-15T00:34:16;32.42;;;24.10;;
55692;SDS011;41590;53.366;5.212;2022-11-15T00:43:31;35.08;;;25.27;;
55692;SDS011;41590;53.366;5.212;2022-11-15T00:49:21;34.20;;;24.90;;
55692;SDS011;41590;53.366;5.212;2022-11-15T00:58:13;38.15;;;25.35;;
55692;SDS011;41590;53.366;5.212;2022-11-15T01:12:54;37.33;;;26.75;;
55692;SDS011;41590;53.366;5.212;2022-11-15T01:15:22;38.75;;;28.05;;
55692;SDS011;41590;53.366;5.212;2022-11-15T01:20:18;37.95;;;27.77;;
55692;SDS011;41590;53.366;5.212;2022-11-15T01:22:50;40.00;;;28.83;;
55692;SDS011;41590;53.366;5.212;2022-11-15T01:25:29;40.15;;;28.55;;
55692;SDS011;41590;53.366;5.212;2022-11-15T01:41:55;47.80;;;33.50;;
55692;SDS011;41590;53.366;5.212;2022-11-15T01:44:41;45.65;;;32.88;;
55692;SDS011;41590;53.366;5.212;2022-11-15T01:47:20;47.00;;;35.28;;
55692;SDS011;41590;53.366;5.212;2022-11-15T01:49:51;46.03;;;33.65;;
55692;SDS011;41590;53.366;5.212;2022-11-15T01:52:41;49.33;;;36.03;;
55692;SDS011;41590;53.366;5.212;2022-11-15T01:57:46;45.67;;;33.83;;
55692;SDS011;41590;53.366;5.212;2022-11-15T02:06:57;51.28;;;36.10;;
55692;SDS011;41590;53.366;5.212;2022-11-15T02:09:24;46.30;;;34.20;;
55692;SDS011;41590;53.366;5.212;2022-11-15T02:14:55;51.75;;;37.05;;
55692;SDS011;41590;53.366;5.212;2022-11-15T02:33:03;52.75;;;36.38;;
55692;SDS011;41590;53.366;5.212;2022-11-15T02:35:52;61.47;;;40.42;;
55692;SDS011;41590;53.366;5.212;2022-11-15T02:53:18;39.60;;;23.05;;
55692;SDS011;41590;53.366;5.212;2022-11-15T03:11:37;46.45;;;28.83;;
55692;SDS011;41590;53.366;5.212;2022-11-15T03:17:55;59.63;;;34.00;;
55692;SDS011;41590;53.366;5.212;2022-11-15T03:23:22;68.40;;;36.83;;
55692;SDS011;41590;53.366;5.212;2022-11-15T03:28:36;71.78;;;39.53;;
55692;SDS011;41590;53.366;5.212;2022-11-15T03:31:09;69.60;;;38.92;;
55692;SDS011;41590;53.366;5.212;2022-11-15T03:34:03;70.32;;;40.35;;
55692;SDS011;41590;53.366;5.212;2022-11-15T03:36:41;68.68;;;38.00;;
55692;SDS011;41590;53.366;5.212;2022-11-15T03:39:09;70.47;;;38.30;;
55692;SDS011;41590;53.366;5.212;2022-11-15T03:47:40;82.72;;;42.00;;
55692;SDS011;41590;53.366;5.212;2022-11-15T03:52:55;75.25;;;37.78;;
55692;SDS011;41590;53.366;5.212;2022-11-15T03:58:25;72.63;;;38.65;;
55692;SDS011;41590;53.366;5.212;2022-11-15T04:00:51;82.63;;;40.05;;
55692;SDS011;41590;53.366;5.212;2022-11-15T04:05:57;86.05;;;39.90;;
55692;SDS011;41590;53.366;5.212;2022-11-15T04:08:31;87.22;;;43.33;;
55692;SDS011;41590;53.366;5.212;2022-11-15T04:14:37;75.80;;;37.42;;
55692;SDS011;41590;53.366;5.212;2022-11-15T04:32:42;96.95;;;42.42;;
55692;SDS011;41590;53.366;5.212;2022-11-15T04:41:54;107.55;;;42.10;;
55692;SDS011;41590;53.366;5.212;2022-11-15T04:44:25;96.50;;;35.92;;
55692;SDS011;41590;53.366;5.212;2022-11-15T04:52:37;127.40;;;46.08;;
55692;SDS011;41590;53.366;5.212;2022-11-15T04:55:03;113.18;;;41.35;;
55692;SDS011;41590;53.366;5.212;2022-11-15T04:57:30;114.38;;;44.90;;
55692;SDS011;41590;53.366;5.212;2022-11-15T04:59:56;123.43;;;45.17;;
55692;SDS011;41590;53.366;5.212;2022-11-15T05:05:20;124.82;;;44.85;;
55692;SDS011;41590;53.366;5.212;2022-11-15T05:07:49;114.78;;;44.67;;
55692;SDS011;41590;53.366;5.212;2022-11-15T05:10:27;122.57;;;46.10;;
55692;SDS011;41590;53.366;5.212;2022-11-15T05:13:03;98.85;;;36.85;;
55692;SDS011;41590;53.366;5.212;2022-11-15T05:18:27;139.93;;;50.65;;
55692;SDS011;41590;53.366;5.212;2022-11-15T05:20:53;122.68;;;46.63;;
55692;SDS011;41590;53.366;5.212;2022-11-15T05:23:25;124.15;;;46.85;;
55692;SDS011;41590;53.366;5.212;2022-11-15T05:25:59;147.77;;;52.33;;
55692;SDS011;41590;53.366;5.212;2022-11-15T05:31:13;141.95;;;47.53;;
55692;SDS011;41590;53.366;5.212;2022-11-15T05:33:44;164.32;;;50.38;;
55692;SDS011;41590;53.366;5.212;2022-11-15T05:36:15;176.95;;;52.28;;
55692;SDS011;41590;53.366;5.212;2022-11-15T05:39:06;175.68;;;50.88;;
55692;SDS011;41590;53.366;5.212;2022-11-15T05:41:51;177.48;;;54.40;;
55692;SDS011;41590;53.366;5.212;2022-11-15T05:44:23;170.80;;;50.97;;
55692;SDS011;41590;53.366;5.212;2022-11-15T05:46:58;160.65;;;50.70;;
55692;SDS011;41590;53.366;5.212;2022-11-15T05:51:57;225.23;;;56.70;;
55692;SDS011;41590;53.366;5.212;2022-11-15T05:54:25;221.23;;;56.03;;
55692;SDS011;41590;53.366;5.212;2022-11-15T05:56:53;238.68;;;58.67;;
55692;SDS011;41590;53.366;5.212;2022-11-15T05:59:20;195.40;;;51.60;;
55692;SDS011;41590;53.366;5.212;2022-11-15T06:01:46;235.18;;;60.15;;
55692;SDS011;41590;53.366;5.212;2022-11-15T06:06:41;215.55;;;58.95;;
55692;SDS011;41590;53.366;5.212;2022-11-15T06:09:15;225.98;;;59.75;;
55692;SDS011;41590;53.366;5.212;2022-11-15T06:11:48;231.25;;;61.97;;
55692;SDS011;41590;53.366;5.212;2022-11-15T06:14:19;258.63;;;67.28;;
55692;SDS011;41590;53.366;5.212;2022-11-15T06:16:53;210.50;;;57.20;;
55692;SDS011;41590;53.366;5.212;2022-11-15T06:21:51;265.63;;;68.15;;
55692;SDS011;41590;53.366;5.212;2022-11-15T06:24:17;222.00;;;62.78;;
55692;SDS011;41590;53.366;5.212;2022-11-15T06:26:44;224.75;;;66.97;;
55692;SDS011;41590;53.366;5.212;2022-11-15T06:29:24;225.30;;;66.07;;
55692;SDS011;41590;53.366;5.212;2022-11-15T06:31:50;212.98;;;66.72;;
55692;SDS011;41590;53.366;5.212;2022-11-15T06:34:18;193.27;;;59.35;;
55692;SDS011;41590;53.366;5.212;2022-11-15T06:36:44;207.95;;;63.78;;
55692;SDS011;41590;53.366;5.212;2022-11-15T06:41:55;201.25;;;66.32;;
55692;SDS011;41590;53.366;5.212;2022-11-15T06:44:21;174.38;;;57.50;;
55692;SDS011;41590;53.366;5.212;2022-11-15T06:46:46;204.13;;;65.57;;
55692;SDS011;41590;53.366;5.212;2022-11-15T06:54:55;209.25;;;69.03;;
55692;SDS011;41590;53.366;5.212;2022-11-15T06:57:31;208.27;;;68.13;;
55692;SDS011;41590;53.366;5.212;2022-11-15T07:05:26;205.65;;;67.25;;
55692;SDS011;41590;53.366;5.212;2022-11-15T07:07:56;173.02;;;62.30;;
55692;SDS011;41590;53.366;5.212;2022-11-15T07:10:30;208.90;;;68.05;;
55692;SDS011;41590;53.366;5.212;2022-11-15T07:13:09;167.55;;;60.55;;
55692;SDS011;41590;53.366;5.212;2022-11-15T07:18:27;148.88;;;57.95;;
55692;SDS011;41590;53.366;5.212;2022-11-15T07:26:46;118.88;;;48.70;;
55692;SDS011;41590;53.366;5.212;2022-11-15T07:29:19;136.10;;;55.22;;
55692;SDS011;41590;53.366;5.212;2022-11-15T07:31:58;141.15;;;59.22;;
55692;SDS011;41590;53.366;5.212;2022-11-15T07:34:25;135.18;;;59.45;;
55692;SDS011;41590;53.366;5.212;2022-11-15T07:36:51;121.97;;;53.80;;
55692;SDS011;41590;53.366;5.212;2022-11-15T07:41:47;112.38;;;49.88;;
55692;SDS011;41590;53.366;5.212;2022-11-15T07:47:14;124.57;;;57.45;;
55692;SDS011;41590;53.366;5.212;2022-11-15T07:52:11;110.60;;;54.20;;
55692;SDS011;41590;53.366;5.212;2022-11-15T07:54:38;93.05;;;43.70;;
55692;SDS011;41590;53.366;5.212;2022-11-15T07:57:08;121.65;;;54.80;;
55692;SDS011;41590;53.366;5.212;2022-11-15T08:02:49;108.07;;;49.97;;
55692;SDS011;41590;53.366;5.212;2022-11-15T08:05:23;96.05;;;49.13;;
55692;SDS011;41590;53.366;5.212;2022-11-15T08:08:06;95.07;;;50.55;;
55692;SDS011;41590;53.366;5.212;2022-11-15T08:10:46;97.95;;;49.53;;
55692;SDS011;41590;53.366;5.212;2022-11-15T08:19:00;108.75;;;51.45;;
55692;SDS011;41590;53.366;5.212;2022-11-15T08:21:25;99.50;;;51.30;;
55692;SDS011;41590;53.366;5.212;2022-11-15T08:23:57;90.32;;;48.72;;
55692;SDS011;41590;53.366;5.212;2022-11-15T08:26:40;92.88;;;51.17;;
55692;SDS011;41590;53.366;5.212;2022-11-15T08:31:44;75.10;;;40.03;;
55692;SDS011;41590;53.366;5.212;2022-11-15T08:34:20;93.82;;;51.00;;
55692;SDS011;41590;53.366;5.212;2022-11-15T08:36:46;75.13;;;44.30;;
55692;SDS011;41590;53.366;5.212;2022-11-15T08:44:41;79.90;;;45.15;;
55692;SDS011;41590;53.366;5.212;2022-11-15T08:47:07;76.88;;;43.35;;
55692;SDS011;41590;53.366;5.212;2022-11-15T08:52:14;75.93;;;43.95;;
55692;SDS011;41590;53.366;5.212;2022-11-15T08:54:43;77.30;;;43.72;;
55692;SDS011;41590;53.366;5.212;2022-11-15T08:59:55;60.30;;;36.58;;
55692;SDS011;41590;53.366;5.212;2022-11-15T09:02:24;65.72;;;40.35;;
55692;SDS011;41590;53.366;5.212;2022-11-15T09:04:51;65.88;;;38.60;;
55692;SDS011;41590;53.366;5.212;2022-11-15T09:09:59;57.75;;;37.00;;
55692;SDS011;41590;53.366;5.212;2022-11-15T09:12:25;58.25;;;36.95;;
55692;SDS011;41590;53.366;5.212;2022-11-15T09:17:36;54.08;;;34.00;;
55692;SDS011;41590;53.366;5.212;2022-11-15T09:20:12;49.08;;;34.45;;
55692;SDS011;41590;53.366;5.212;2022-11-15T09:22:40;52.97;;;34.85;;
55692;SDS011;41590;53.366;5.212;2022-11-15T09:25:06;49.75;;;33.97;;
55692;SDS011;41590;53.366;5.212;2022-11-15T09:27:34;46.38;;;31.08;;
55692;SDS011;41590;53.366;5.212;2022-11-15T09:30:02;42.55;;;29.83;;
55692;SDS011;41590;53.366;5.212;2022-11-15T09:32:30;47.13;;;32.15;;
55692;SDS011;41590;53.366;5.212;2022-11-15T09:35:02;47.75;;;29.83;;
55692;SDS011;41590;53.366;5.212;2022-11-15T09:37:28;41.38;;;27.85;;
55692;SDS011;41590;53.366;5.212;2022-11-15T09:49:00;44.25;;;27.35;;
55692;SDS011;41590;53.366;5.212;2022-11-15T10:05:31;44.03;;;27.10;;
55692;SDS011;41590;53.366;5.212;2022-11-15T10:11:06;42.03;;;27.25;;
55692;SDS011;41590;53.366;5.212;2022-11-15T10:13:40;34.25;;;22.75;;
55692;SDS011;41590;53.366;5.212;2022-11-15T10:27:40;42.97;;;27.38;;
55692;SDS011;41590;53.366;5.212;2022-11-15T10:32:49;40.60;;;29.33;;
55692;SDS011;41590;53.366;5.212;2022-11-15T10:35:27;38.15;;;26.60;;
55692;SDS011;41590;53.366;5.212;2022-11-15T10:38:08;36.58;;;25.15;;
55692;SDS011;41590;53.366;5.212;2022-11-15T10:40:37;39.10;;;26.17;;
55692;SDS011;41590;53.366;5.212;2022-11-15T10:43:23;36.78;;;24.27;;
55692;SDS011;41590;53.366;5.212;2022-11-15T10:45:57;33.22;;;23.77;;
55692;SDS011;41590;53.366;5.212;2022-11-15T10:51:25;35.88;;;24.25;;
55692;SDS011;41590;53.366;5.212;2022-11-15T10:53:59;35.97;;;24.15;;
55692;SDS011;41590;53.366;5.212;2022-11-15T10:56:26;33.85;;;23.48;;
55692;SDS011;41590;53.366;5.212;2022-11-15T11:01:47;30.35;;;22.52;;
55692;SDS011;41590;53.366;5.212;2022-11-15T11:04:14;35.03;;;21.45;;
55692;SDS011;41590;53.366;5.212;2022-11-15T11:06:53;30.98;;;21.33;;
55692;SDS011;41590;53.366;5.212;2022-11-15T11:12:12;29.67;;;21.55;;
55692;SDS011;41590;53.366;5.212;2022-11-15T11:14:43;32.58;;;21.83;;
55692;SDS011;41590;53.366;5.212;2022-11-15T11:17:13;28.38;;;19.17;;
55692;SDS011;41590;53.366;5.212;2022-11-15T11:46:36;22.15;;;14.80;;
55692;SDS011;41590;53.366;5.212;2022-11-15T11:54:59;23.00;;;12.18;;
55692;SDS011;41590;53.366;5.212;2022-11-15T12:07:08;20.00;;;13.32;;
55692;SDS011;41590;53.366;5.212;2022-11-15T12:25:18;23.45;;;12.15;;
55692;SDS011;41590;53.366;5.212;2022-11-15T12:27:48;18.48;;;10.00;;
55692;SDS011;41590;53.366;5.212;2022-11-15T12:39:12;22.10;;;9.68;;
55692;SDS011;41590;53.366;5.212;2022-11-15T12:45:03;18.08;;;9.00;;
55692;SDS011;41590;53.366;5.212;2022-11-15T12:51:05;17.98;;;9.18;;
55692;SDS011;41590;53.366;5.212;2022-11-15T12:53:32;11.82;;;7.15;;
55692;SDS011;41590;53.366;5.212;2022-11-15T12:58:48;16.45;;;6.82;;
55692;SDS011;41590;53.366;5.212;2022-11-15T13:06:52;15.52;;;6.03;;
55692;SDS011;41590;53.366;5.212;2022-11-15T13:14:38;12.52;;;6.13;;
55692;SDS011;41590;53.366;5.212;2022-11-15T13:20:02;11.10;;;6.10;;
55692;SDS011;41590;53.366;5.212;2022-11-15T13:22:50;19.48;;;7.15;;
55692;SDS011;41590;53.366;5.212;2022-11-15T13:31:01;13.13;;;6.00;;
55692;SDS011;41590;53.366;5.212;2022-11-15T13:33:39;9.90;;;5.35;;
55692;SDS011;41590;53.366;5.212;2022-11-15T13:41:33;14.93;;;5.82;;
55692;SDS011;41590;53.366;5.212;2022-11-15T13:44:03;13.00;;;5.80;;
55692;SDS011;41590;53.366;5.212;2022-11-15T13:49:10;13.82;;;6.57;;
55692;SDS011;41590;53.366;5.212;2022-11-15T13:54:23;15.10;;;7.32;;
55692;SDS011;41590;53.366;5.212;2022-11-15T13:57:08;12.80;;;8.07;;
55692;SDS011;41590;53.366;5.212;2022-11-15T13:59:51;12.40;;;7.45;;
55692;SDS011;41590;53.366;5.212;2022-11-15T14:02:32;18.48;;;7.57;;
55692;SDS011;41590;53.366;5.212;2022-11-15T14:07:56;13.10;;;8.13;;
55692;SDS011;41590;53.366;5.212;2022-11-15T14:10:32;13.98;;;7.28;;
55692;SDS011;41590;53.366;5.212;2022-11-15T14:12:58;14.43;;;6.60;;
55692;SDS011;41590;53.366;5.212;2022-11-15T14:15:27;11.27;;;5.68;;
55692;SDS011;41590;53.366;5.212;2022-11-15T14:17:55;15.90;;;4.72;;
55692;SDS011;41590;53.366;5.212;2022-11-15T14:22:52;10.63;;;3.97;;
55692;SDS011;41590;53.366;5.212;2022-11-15T14:25:21;11.30;;;3.95;;
55692;SDS011;41590;53.366;5.212;2022-11-15T14:30:45;11.25;;;4.85;;
55692;SDS011;41590;53.366;5.212;2022-11-15T14:35:52;13.00;;;5.60;;
55692;SDS011;41590;53.366;5.212;2022-11-15T14:38:19;15.25;;;5.13;;
55692;SDS011;41590;53.366;5.212;2022-11-15T14:40:45;13.48;;;5.50;;
55692;SDS011;41590;53.366;5.212;2022-11-15T14:43:11;8.93;;;4.97;;
55692;SDS011;41590;53.366;5.212;2022-11-15T14:45:40;10.38;;;4.90;;
55692;SDS011;41590;53.366;5.212;2022-11-15T14:48:08;10.35;;;4.40;;
55692;SDS011;41590;53.366;5.212;2022-11-15T14:50:36;9.73;;;4.53;;
55692;SDS011;41590;53.366;5.212;2022-11-15T14:55:39;7.25;;;4.85;;
55692;SDS011;41590;53.366;5.212;2022-11-15T15:00:44;10.05;;;5.07;;
55692;SDS011;41590;53.366;5.212;2022-11-15T15:03:11;10.73;;;4.23;;
55692;SDS011;41590;53.366;5.212;2022-11-15T15:05:43;9.75;;;4.68;;
55692;SDS011;41590;53.366;5.212;2022-11-15T15:08:11;9.05;;;4.35;;
55692;SDS011;41590;53.366;5.212;2022-11-15T15:10:42;7.30;;;4.15;;
55692;SDS011;41590;53.366;5.212;2022-11-15T15:13:23;8.82;;;4.10;;
55692;SDS011;41590;53.366;5.212;2022-11-15T15:15:51;9.82;;;4.18;;
55692;SDS011;41590;53.366;5.212;2022-11-15T15:18:17;9.70;;;5.13;;
55692;SDS011;41590;53.366;5.212;2022-11-15T15:20:44;7.93;;;5.20;;
55692;SDS011;41590;53.366;5.212;2022-11-15T15:23:19;10.57;;;5.05;;
55692;SDS011;41590;53.366;5.212;2022-11-15T15:25:47;11.05;;;4.72;;
55692;SDS011;41590;53.366;5.212;2022-11-15T15:28:14;8.55;;;4.55;;
55692;SDS011;41590;53.366;5.212;2022-11-15T15:30:41;7.72;;;4.38;;
55692;SDS011;41590;53.366;5.212;2022-11-15T15:33:06;10.45;;;4.78;;
55692;SDS011;41590;53.366;5.212;2022-11-15T15:35:34;9.10;;;4.40;;
55692;SDS011;41590;53.366;5.212;2022-11-15T15:38:01;10.15;;;3.70;;
55692;SDS011;41590;53.366;5.212;2022-11-15T15:40:28;7.75;;;3.58;;
55692;SDS011;41590;53.366;5.212;2022-11-15T15:42:56;8.57;;;4.15;;
55692;SDS011;41590;53.366;5.212;2022-11-15T15:45:22;9.55;;;3.45;;
55692;SDS011;41590;53.366;5.212;2022-11-15T15:53:04;11.75;;;5.05;;
55692;SDS011;41590;53.366;5.212;2022-11-15T15:55:31;11.00;;;3.70;;
55692;SDS011;41590;53.366;5.212;2022-11-15T16:00:49;10.45;;;3.90;;
55692;SDS011;41590;53.366;5.212;2022-11-15T16:07:27;8.88;;;4.57;;
55692;SDS011;41590;53.366;5.212;2022-11-15T16:12:59;10.57;;;4.05;;
55692;SDS011;41590;53.366;5.212;2022-11-15T16:15:26;10.63;;;4.07;;
55692;SDS011;41590;53.366;5.212;2022-11-15T16:17:58;10.32;;;3.70;;
55692;SDS011;41590;53.366;5.212;2022-11-15T16:20:41;6.75;;;3.38;;
55692;SDS011;41590;53.366;5.212;2022-11-15T16:23:15;10.07;;;3.20;;
55692;SDS011;41590;53.366;5.212;2022-11-15T16:25:46;5.40;;;3.03;;
55692;SDS011;41590;53.366;5.212;2022-11-15T16:30:47;7.05;;;3.95;;
55692;SDS011;41590;53.366;5.212;2022-11-15T16:33:14;8.60;;;3.75;;
55692;SDS011;41590;53.366;5.212;2022-11-15T16:35:44;8.00;;;4.40;;
55692;SDS011;41590;53.366;5.212;2022-11-15T16:38:13;10.45;;;6.95;;
55692;SDS011;41590;53.366;5.212;2022-11-15T16:40:40;11.88;;;4.13;;
55692;SDS011;41590;53.366;5.212;2022-11-15T16:43:10;12.95;;;10.65;;
55692;SDS011;41590;53.366;5.212;2022-11-15T16:45:37;8.57;;;6.45;;
55692;SDS011;41590;53.366;5.212;2022-11-15T16:48:04;8.88;;;4.22;;
55692;SDS011;41590;53.366;5.212;2022-11-15T16:50:32;8.30;;;4.57;;
55692;SDS011;41590;53.366;5.212;2022-11-15T16:53:05;10.07;;;4.18;;
55692;SDS011;41590;53.366;5.212;2022-11-15T16:55:31;9.80;;;5.72;;
55692;SDS011;41590;53.366;5.212;2022-11-15T16:57:57;8.85;;;5.70;;
55692;SDS011;41590;53.366;5.212;2022-11-15T17:00:24;7.25;;;4.30;;
55692;SDS011;41590;53.366;5.212;2022-11-15T17:02:50;6.90;;;4.20;;
55692;SDS011;41590;53.366;5.212;2022-11-15T17:05:17;8.13;;;3.67;;
55692;SDS011;41590;53.366;5.212;2022-11-15T17:07:48;7.03;;;2.92;;
55692;SDS011;41590;53.366;5.212;2022-11-15T17:12:56;7.95;;;3.13;;
55692;SDS011;41590;53.366;5.212;2022-11-15T17:15:48;7.82;;;3.35;;
55692;SDS011;41590;53.366;5.212;2022-11-15T17:18:15;8.80;;;3.42;;
55692;SDS011;41590;53.366;5.212;2022-11-15T17:20:43;6.20;;;3.17;;
55692;SDS011;41590;53.366;5.212;2022-11-15T17:23:12;9.27;;;3.80;;
55692;SDS011;41590;53.366;5.212;2022-11-15T17:25:39;9.23;;;3.50;;
55692;SDS011;41590;53.366;5.212;2022-11-15T17:28:04;6.47;;;3.00;;
55692;SDS011;41590;53.366;5.212;2022-11-15T17:30:31;8.20;;;3.55;;
55692;SDS011;41590;53.366;5.212;2022-11-15T17:33:05;11.10;;;3.72;;
55692;SDS011;41590;53.366;5.212;2022-11-15T17:35:33;10.00;;;3.95;;
55692;SDS011;41590;53.366;5.212;2022-11-15T17:37:59;7.90;;;3.78;;
55692;SDS011;41590;53.366;5.212;2022-11-15T17:40:24;7.15;;;3.40;;
55692;SDS011;41590;53.366;5.212;2022-11-15T17:42:50;7.45;;;3.17;;
55692;SDS011;41590;53.366;5.212;2022-11-15T17:45:16;15.00;;;3.95;;
55692;SDS011;41590;53.366;5.212;2022-11-15T17:47:42;8.23;;;3.45;;
55692;SDS011;41590;53.366;5.212;2022-11-15T17:50:08;7.60;;;3.42;;
55692;SDS011;41590;53.366;5.212;2022-11-15T17:52:34;6.45;;;3.50;;
55692;SDS011;41590;53.366;5.212;2022-11-15T17:55:00;7.55;;;4.75;;
55692;SDS011;41590;53.366;5.212;2022-11-15T17:57:26;14.38;;;5.18;;
55692;SDS011;41590;53.366;5.212;2022-11-15T17:59:52;9.27;;;5.00;;
55692;SDS011;41590;53.366;5.212;2022-11-15T18:02:18;10.65;;;5.80;;
55692;SDS011;41590;53.366;5.212;2022-11-15T18:04:45;9.80;;;4.53;;
55692;SDS011;41590;53.366;5.212;2022-11-15T18:07:11;9.40;;;4.25;;
55692;SDS011;41590;53.366;5.212;2022-11-15T18:09:38;10.95;;;4.15;;
55692;SDS011;41590;53.366;5.212;2022-11-15T18:12:08;10.88;;;4.13;;
55692;SDS011;41590;53.366;5.212;2022-11-15T18:14:38;7.78;;;4.38;;
55692;SDS011;41590;53.366;5.212;2022-11-15T18:17:04;14.25;;;6.80;;
55692;SDS011;41590;53.366;5.212;2022-11-15T18:19:30;7.18;;;5.55;;
55692;SDS011;41590;53.366;5.212;2022-11-15T18:21:56;7.50;;;3.90;;
55692;SDS011;41590;53.366;5.212;2022-11-15T18:24:28;10.00;;;4.88;;
55692;SDS011;41590;53.366;5.212;2022-11-15T18:26:59;9.25;;;3.90;;
55692;SDS011;41590;53.366;5.212;2022-11-15T18:29:26;10.07;;;3.58;;
55692;SDS011;41590;53.366;5.212;2022-11-15T18:31:53;11.63;;;5.88;;
55692;SDS011;41590;53.366;5.212;2022-11-15T18:34:23;8.75;;;3.13;;
55692;SDS011;41590;53.366;5.212;2022-11-15T18:36:50;19.02;;;8.40;;
55692;SDS011;41590;53.366;5.212;2022-11-15T18:39:17;9.38;;;3.10;;
55692;SDS011;41590;53.366;5.212;2022-11-15T18:41:43;8.65;;;2.75;;
55692;SDS011;41590;53.366;5.212;2022-11-15T18:44:10;9.65;;;2.63;;
55692;SDS011;41590;53.366;5.212;2022-11-15T18:46:37;10.85;;;3.10;;
55692;SDS011;41590;53.366;5.212;2022-11-15T18:49:03;14.93;;;3.13;;
55692;SDS011;41590;53.366;5.212;2022-11-15T18:51:33;11.23;;;3.40;;
55692;SDS011;41590;53.366;5.212;2022-11-15T18:54:00;11.95;;;2.80;;
55692;SDS011;41590;53.366;5.212;2022-11-15T18:56:27;9.95;;;2.92;;
55692;SDS011;41590;53.366;5.212;2022-11-15T18:58:55;10.25;;;2.65;;
55692;SDS011;41590;53.366;5.212;2022-11-15T19:01:24;11.75;;;3.45;;
55692;SDS011;41590;53.366;5.212;2022-11-15T19:03:56;10.82;;;2.80;;
55692;SDS011;41590;53.366;5.212;2022-11-15T19:06:24;13.73;;;3.30;;
55692;SDS011;41590;53.366;5.212;2022-11-15T19:08:53;15.93;;;3.20;;
55692;SDS011;41590;53.366;5.212;2022-11-15T19:11:21;13.05;;;3.10;;
55692;SDS011;41590;53.366;5.212;2022-11-15T19:13:53;10.10;;;3.03;;
55692;SDS011;41590;53.366;5.212;2022-11-15T19:16:24;10.75;;;5.57;;
55692;SDS011;41590;53.366;5.212;2022-11-15T19:18:56;20.38;;;4.82;;
55692;SDS011;41590;53.366;5.212;2022-11-15T19:21:23;19.05;;;8.13;;
55692;SDS011;41590;53.366;5.212;2022-11-15T19:23:49;15.88;;;8.50;;
55692;SDS011;41590;53.366;5.212;2022-11-15T19:26:21;14.73;;;4.35;;
55692;SDS011;41590;53.366;5.212;2022-11-15T19:34:00;11.88;;;4.05;;
55692;SDS011;41590;53.366;5.212;2022-11-15T19:36:33;19.60;;;7.35;;
55692;SDS011;41590;53.366;5.212;2022-11-15T19:39:02;15.73;;;4.55;;
55692;SDS011;41590;53.366;5.212;2022-11-15T19:41:32;18.63;;;7.07;;
55692;SDS011;41590;53.366;5.212;2022-11-15T19:43:58;24.33;;;11.52;;
55692;SDS011;41590;53.366;5.212;2022-11-15T19:46:25;17.17;;;4.93;;
55692;SDS011;41590;53.366;5.212;2022-11-15T19:48:52;19.20;;;4.43;;
55692;SDS011;41590;53.366;5.212;2022-11-15T19:51:23;15.73;;;4.03;;
55692;SDS011;41590;53.366;5.212;2022-11-15T19:53:51;20.90;;;7.78;;
55692;SDS011;41590;53.366;5.212;2022-11-15T19:56:19;12.45;;;4.18;;
55692;SDS011;41590;53.366;5.212;2022-11-15T19:58:45;18.92;;;7.18;;
55692;SDS011;41590;53.366;5.212;2022-11-15T20:01:21;15.48;;;4.60;;
55692;SDS011;41590;53.366;5.212;2022-11-15T20:03:50;10.88;;;4.35;;
55692;SDS011;41590;53.366;5.212;2022-11-15T20:06:23;15.38;;;5.47;;
55692;SDS011;41590;53.366;5.212;2022-11-15T20:08:51;16.80;;;4.43;;
55692;SDS011;41590;53.366;5.212;2022-11-15T20:11:17;16.90;;;5.72;;
55692;SDS011;41590;53.366;5.212;2022-11-15T20:13:43;16.35;;;5.32;;
55692;SDS011;41590;53.366;5.212;2022-11-15T20:16:19;11.90;;;5.40;;
55692;SDS011;41590;53.366;5.212;2022-11-15T20:18:46;15.18;;;5.88;;
55692;SDS011;41590;53.366;5.212;2022-11-15T20:21:13;16.40;;;7.25;;
55692;SDS011;41590;53.366;5.212;2022-11-15T20:23:39;19.95;;;8.95;;
55692;SDS011;41590;53.366;5.212;2022-11-15T20:26:08;16.20;;;6.15;;
55692;SDS011;41590;53.366;5.212;2022-11-15T20:28:35;18.05;;;5.80;;
55692;SDS011;41590;53.366;5.212;2022-11-15T20:31:16;11.57;;;5.05;;
55692;SDS011;41590;53.366;5.212;2022-11-15T20:33:43;15.20;;;6.25;;
55692;SDS011;41590;53.366;5.212;2022-11-15T20:38:39;11.27;;;5.68;;
55692;SDS011;41590;53.366;5.212;2022-11-15T20:41:05;17.08;;;6.47;;
55692;SDS011;41590;53.366;5.212;2022-11-15T20:43:31;14.38;;;6.18;;
55692;SDS011;41590;53.366;5.212;2022-11-15T20:45:58;10.85;;;5.80;;
55692;SDS011;41590;53.366;5.212;2022-11-15T20:48:26;15.20;;;6.13;;
55692;SDS011;41590;53.366;5.212;2022-11-15T20:51:01;12.45;;;6.15;;
55692;SDS011;41590;53.366;5.212;2022-11-15T20:53:36;9.85;;;4.93;;
55692;SDS011;41590;53.366;5.212;2022-11-15T20:56:13;18.65;;;7.53;;
55692;SDS011;41590;53.366;5.212;2022-11-15T20:58:43;16.60;;;6.15;;
55692;SDS011;41590;53.366;5.212;2022-11-15T21:01:11;12.20;;;5.82;;
55692;SDS011;41590;53.366;5.212;2022-11-15T21:03:41;15.02;;;6.35;;
55692;SDS011;41590;53.366;5.212;2022-11-15T21:06:08;16.70;;;6.47;;
55692;SDS011;41590;53.366;5.212;2022-11-15T21:08:35;13.43;;;6.55;;
55692;SDS011;41590;53.366;5.212;2022-11-15T21:11:20;15.95;;;7.57;;
55692;SDS011;41590;53.366;5.212;2022-11-15T21:14:06;11.93;;;7.20;;
55692;SDS011;41590;53.366;5.212;2022-11-15T21:16:34;18.77;;;7.97;;
55692;SDS011;41590;53.366;5.212;2022-11-15T21:18:59;40.97;;;20.65;;
55692;SDS011;41590;53.366;5.212;2022-11-15T21:21:25;26.42;;;14.10;;
55692;SDS011;41590;53.366;5.212;2022-11-15T21:23:51;20.98;;;8.93;;
55692;SDS011;41590;53.366;5.212;2022-11-15T21:28:47;16.85;;;8.57;;
55692;SDS011;41590;53.366;5.212;2022-11-15T21:31:22;17.13;;;8.77;;
55692;SDS011;41590;53.366;5.212;2022-11-15T21:36:22;19.70;;;8.18;;
55692;SDS011;41590;53.366;5.212;2022-11-15T21:38:50;19.85;;;9.00;;
55692;SDS011;41590;53.366;5.212;2022-11-15T21:41:16;17.10;;;8.70;;
55692;SDS011;41590;53.366;5.212;2022-11-15T21:43:49;13.02;;;8.10;;
55692;SDS011;41590;53.366;5.212;2022-11-15T21:46:19;14.60;;;7.85;;
55692;SDS011;41590;53.366;5.212;2022-11-15T21:48:49;14.82;;;8.07;;
55692;SDS011;41590;53.366;5.212;2022-11-15T21:51:14;13.70;;;8.82;;
55692;SDS011;41590;53.366;5.212;2022-11-15T21:53:40;16.77;;;8.32;;
55692;SDS011;41590;53.366;5.212;2022-11-15T21:58:38;17.70;;;8.25;;
55692;SDS011;41590;53.366;5.212;2022-11-15T22:01:04;14.70;;;7.90;;
55692;SDS011;41590;53.366;5.212;2022-11-15T22:03:49;17.88;;;8.57;;
55692;SDS011;41590;53.366;5.212;2022-11-15T22:06:16;11.60;;;8.73;;
55692;SDS011;41590;53.366;5.212;2022-11-15T22:08:42;16.70;;;9.60;;
55692;SDS011;41590;53.366;5.212;2022-11-15T22:16:12;17.55;;;9.40;;
55692;SDS011;41590;53.366;5.212;2022-11-15T22:18:38;17.77;;;10.95;;
55692;SDS011;41590;53.366;5.212;2022-11-15T22:21:11;14.75;;;9.70;;
55692;SDS011;41590;53.366;5.212;2022-11-15T22:23:40;17.10;;;10.32;;
55692;SDS011;41590;53.366;5.212;2022-11-15T22:26:09;22.13;;;10.73;;
55692;SDS011;41590;53.366;5.212;2022-11-15T22:28:41;17.10;;;10.65;;